createdAt,value
2023-01-20T00:00:11.585Z,23.00
2023-01-20T00:03:22.971Z,23.00
2023-01-20T00:05:52.535Z,16.50
2023-01-20T00:08:20.737Z,17.00
2023-01-20T00:10:48.744Z,21.67
2023-01-20T00:13:17.071Z,27.00
2023-01-20T00:15:45.329Z,21.00
2023-01-20T00:18:13.340Z,24.00
2023-01-20T00:20:42.003Z,22.00
2023-01-20T00:23:09.971Z,23.50
2023-01-20T00:25:38.417Z,25.00
2023-01-20T00:28:06.578Z,23.00
2023-01-20T00:30:34.655Z,20.00
2023-01-20T00:33:02.872Z,8.50
2023-01-20T00:35:30.948Z,24.00
2023-01-20T00:37:58.956Z,22.00
2023-01-20T00:40:27.021Z,17.00
2023-01-20T00:42:55.220Z,23.00
2023-01-20T00:45:23.501Z,19.00
2023-01-20T00:47:51.501Z,23.50
2023-01-20T00:50:19.646Z,23.00
2023-01-20T00:52:47.717Z,23.00
2023-01-20T00:55:55.598Z,25.50
2023-01-20T00:58:23.854Z,23.50
2023-01-20T01:00:53.537Z,20.00
2023-01-20T01:03:22.658Z,24.00
2023-01-20T01:06:51.173Z,32.50
2023-01-20T01:10:35.455Z,23.00
2023-01-20T01:13:04.843Z,20.00
2023-01-20T01:16:33.915Z,28.50
2023-01-20T01:19:02.798Z,26.00
2023-01-20T01:21:30.927Z,27.00
2023-01-20T01:23:58.849Z,26.00
2023-01-20T01:27:07.438Z,26.00
2023-01-20T01:29:35.515Z,26.00
2023-01-20T01:32:03.614Z,31.00
2023-01-20T01:34:31.789Z,47.50
2023-01-20T01:37:00.119Z,43.00
2023-01-20T01:39:28.192Z,35.00
2023-01-20T01:41:56.519Z,35.00
2023-01-20T01:44:27.976Z,34.00
2023-01-20T01:46:56.003Z,46.00
2023-01-20T01:49:31.776Z,44.00
2023-01-20T01:52:06.111Z,40.50
2023-01-20T01:54:38.298Z,36.00
2023-01-20T01:57:08.703Z,36.00
2023-01-20T01:59:38.750Z,32.00
2023-01-20T02:02:07.035Z,40.00
2023-01-20T02:04:35.280Z,26.00
2023-01-20T02:07:12.867Z,31.00
2023-01-20T02:09:41.268Z,26.00
2023-01-20T02:12:17.578Z,26.00
2023-01-20T02:14:50.616Z,28.00
2023-01-20T02:17:24.568Z,26.00
2023-01-20T02:19:56.207Z,24.00
2023-01-20T02:23:52.195Z,26.00
2023-01-20T02:26:39.187Z,20.00
2023-01-20T02:29:44.668Z,20.00
2023-01-20T02:32:35.040Z,23.00
2023-01-20T02:35:12.537Z,24.00
2023-01-20T02:38:31.152Z,25.00
2023-01-20T02:42:27.539Z,30.50
2023-01-20T02:45:04.751Z,22.00
2023-01-20T02:47:55.953Z,23.00
2023-01-20T02:50:36.493Z,22.50
2023-01-20T02:53:07.654Z,30.00
2023-01-20T02:55:42.590Z,29.50
2023-01-20T02:58:18.366Z,28.00
2023-01-20T03:00:58.419Z,32.50
2023-01-20T03:03:34.533Z,31.00
2023-01-20T03:06:07.141Z,28.00
2023-01-20T03:08:38.281Z,32.00
2023-01-20T03:11:08.956Z,26.50
2023-01-20T03:13:47.436Z,19.00
2023-01-20T03:16:22.162Z,30.00
2023-01-20T03:18:51.809Z,22.00
2023-01-20T03:21:19.919Z,21.00
2023-01-20T03:23:52.882Z,21.00
2023-01-20T03:26:23.266Z,26.50
2023-01-20T03:29:16.191Z,30.00
2023-01-20T03:31:52.954Z,24.00
2023-01-20T03:34:24.405Z,30.00
2023-01-20T03:36:54.362Z,32.00
2023-01-20T03:39:24.172Z,29.00
2023-01-20T03:42:01.164Z,31.00
2023-01-20T03:44:52.250Z,31.00
2023-01-20T03:47:47.480Z,32.00
2023-01-20T03:50:54.188Z,40.00
2023-01-20T03:53:25.316Z,32.00
2023-01-20T03:56:04.659Z,33.00
2023-01-20T03:58:38.012Z,28.00
2023-01-20T04:01:17.791Z,28.00
2023-01-20T04:03:50.791Z,32.00
2023-01-20T04:06:22.291Z,29.00
2023-01-20T04:08:59.411Z,27.00
2023-01-20T04:11:28.114Z,29.00
2023-01-20T04:13:56.667Z,33.00
2023-01-20T04:16:26.672Z,34.00
2023-01-20T04:19:15.857Z,27.00
2023-01-20T04:22:12.687Z,30.50
2023-01-20T04:25:08.476Z,31.00
2023-01-20T04:27:36.387Z,27.50
2023-01-20T04:30:04.704Z,27.00
2023-01-20T04:32:32.607Z,27.50
2023-01-20T04:35:00.473Z,30.00
2023-01-20T04:37:28.409Z,28.00
2023-01-20T04:39:56.505Z,21.00
2023-01-20T04:42:25.856Z,24.00
2023-01-20T04:44:54.088Z,23.00
2023-01-20T04:47:22.234Z,20.00
2023-01-20T04:49:50.508Z,27.00
2023-01-20T04:52:18.614Z,21.00
2023-01-20T04:54:46.662Z,17.00
2023-01-20T04:57:14.763Z,28.00
2023-01-20T04:59:47.935Z,20.00
2023-01-20T05:02:16.340Z,19.00
2023-01-20T05:04:45.580Z,21.00
2023-01-20T05:07:13.527Z,17.00
2023-01-20T05:09:41.560Z,22.00
2023-01-20T05:12:09.645Z,17.50
2023-01-20T05:14:37.535Z,18.00
2023-01-20T05:17:05.570Z,19.00
2023-01-20T05:19:33.466Z,21.67
2023-01-20T05:22:01.466Z,18.33
2023-01-20T05:24:30.906Z,22.00
2023-01-20T05:27:02.245Z,20.00
2023-01-20T05:29:30.520Z,16.00
2023-01-20T05:31:58.626Z,19.00
2023-01-20T05:34:26.649Z,21.00
2023-01-20T05:36:54.795Z,18.00
2023-01-20T05:39:22.859Z,21.00
2023-01-20T05:41:51.048Z,18.00
2023-01-20T05:44:19.158Z,22.00
2023-01-20T05:46:47.598Z,24.00
2023-01-20T05:49:15.760Z,16.00
2023-01-20T05:51:43.808Z,24.00
2023-01-20T05:54:11.861Z,27.00
2023-01-20T05:56:39.930Z,28.00
2023-01-20T05:59:08.187Z,29.00
2023-01-20T06:01:36.693Z,30.00
2023-01-20T06:04:04.881Z,30.00
2023-01-20T06:06:33.103Z,26.50
2023-01-20T06:09:01.103Z,30.00
2023-01-20T06:11:29.261Z,30.00
2023-01-20T06:13:57.438Z,34.00
2023-01-20T06:16:25.585Z,36.50
2023-01-20T06:18:53.548Z,37.00
2023-01-20T06:22:02.613Z,40.00
2023-01-20T06:24:31.303Z,34.67
2023-01-20T06:26:59.514Z,36.00
2023-01-20T06:29:27.573Z,42.00
2023-01-20T06:31:55.966Z,27.00
2023-01-20T06:34:24.194Z,26.00
2023-01-20T06:36:52.273Z,21.00
2023-01-20T06:39:20.310Z,22.00
2023-01-20T06:41:48.370Z,20.50
2023-01-20T06:44:17.379Z,21.00
2023-01-20T06:46:48.200Z,22.00
2023-01-20T06:49:16.276Z,20.50
2023-01-20T06:51:44.332Z,15.00
2023-01-20T06:54:12.275Z,14.33
2023-01-20T06:56:40.271Z,17.00
2023-01-20T06:59:10.238Z,18.00
2023-01-20T07:01:38.428Z,22.00
2023-01-20T07:04:06.687Z,22.00
2023-01-20T07:06:40.068Z,19.00
2023-01-20T07:09:11.637Z,20.00
2023-01-20T07:11:40.448Z,17.00
2023-01-20T07:14:10.123Z,17.00
2023-01-20T07:16:38.475Z,17.00
2023-01-20T07:19:06.439Z,15.00
2023-01-20T07:21:34.368Z,19.00
2023-01-20T07:24:02.532Z,15.50
2023-01-20T07:26:31.483Z,16.50
2023-01-20T07:29:00.007Z,18.00
2023-01-20T07:31:29.437Z,15.33
2023-01-20T07:33:58.433Z,19.00
2023-01-20T07:36:26.654Z,18.00
2023-01-20T07:38:54.773Z,17.00
2023-01-20T07:41:23.766Z,17.50
2023-01-20T07:43:53.766Z,17.00
2023-01-20T07:46:22.568Z,16.50
2023-01-20T07:48:50.721Z,15.00
2023-01-20T07:51:18.875Z,17.00
2023-01-20T07:53:51.063Z,18.50
2023-01-20T07:56:24.429Z,18.67
2023-01-20T07:58:54.490Z,22.33
2023-01-20T08:01:26.353Z,25.00
2023-01-20T08:03:54.805Z,22.00
2023-01-20T08:06:24.840Z,19.00
2023-01-20T08:08:58.747Z,23.00
2023-01-20T08:11:26.895Z,23.00
2023-01-20T08:13:54.829Z,25.00
2023-01-20T08:16:23.052Z,24.50
2023-01-20T08:18:54.037Z,29.50
2023-01-20T08:21:24.141Z,32.50
2023-01-20T08:23:55.240Z,23.50
2023-01-20T08:26:27.961Z,27.00
2023-01-20T08:29:02.510Z,29.00
2023-01-20T08:31:30.910Z,31.50
2023-01-20T08:33:59.433Z,29.00
2023-01-20T08:36:30.691Z,33.50
2023-01-20T08:39:02.627Z,31.50
2023-01-20T08:41:34.584Z,38.50
2023-01-20T08:44:05.389Z,33.00
2023-01-20T08:46:34.590Z,39.00
2023-01-20T08:51:32.023Z,40.00
2023-01-20T08:54:00.420Z,36.50
2023-01-20T08:56:30.049Z,33.00
2023-01-20T08:58:59.389Z,38.00
2023-01-20T09:01:30.270Z,30.50
2023-01-20T09:04:05.716Z,30.00
2023-01-20T09:07:01.020Z,0.00
2023-01-20T09:09:28.905Z,28.50
2023-01-20T09:11:56.964Z,30.00
2023-01-20T09:14:25.511Z,31.00
2023-01-20T09:16:53.642Z,35.50
2023-01-20T09:19:21.937Z,34.00
2023-01-20T09:21:50.107Z,29.00
2023-01-20T09:24:18.086Z,32.00
2023-01-20T09:26:47.779Z,33.50
2023-01-20T09:29:18.882Z,29.00
2023-01-20T09:31:58.226Z,29.00
2023-01-20T09:34:29.612Z,35.00
2023-01-20T09:37:20.644Z,34.00
2023-01-20T09:40:08.115Z,42.00
2023-01-20T09:43:20.027Z,52.00
2023-01-20T09:45:56.904Z,47.00
2023-01-20T09:49:16.990Z,53.00
2023-01-20T09:52:29.280Z,57.00
2023-01-20T09:55:04.026Z,60.00
2023-01-20T09:57:36.979Z,56.00
2023-01-20T10:00:22.182Z,49.00
2023-01-20T10:02:56.885Z,47.00
2023-01-20T10:05:47.099Z,49.50
2023-01-20T10:08:25.095Z,47.00
2023-01-20T10:11:04.421Z,43.00
2023-01-20T10:13:51.727Z,43.50
2023-01-20T10:16:36.985Z,39.00
2023-01-20T10:19:20.937Z,40.50
2023-01-20T10:22:01.300Z,41.00
2023-01-20T10:24:34.297Z,42.00
2023-01-20T10:27:05.261Z,40.00
2023-01-20T10:29:47.030Z,41.00
2023-01-20T10:35:11.302Z,46.00
2023-01-20T10:37:39.657Z,42.00
2023-01-20T10:40:25.036Z,40.00
2023-01-20T10:43:01.211Z,31.00
2023-01-20T10:45:51.312Z,37.00
2023-01-20T10:48:44.876Z,29.00
2023-01-20T10:51:23.542Z,33.00
2023-01-20T10:54:02.303Z,37.00
2023-01-20T10:56:55.762Z,37.00
2023-01-20T10:59:40.699Z,33.00
2023-01-20T11:02:20.848Z,39.50
2023-01-20T11:04:55.485Z,39.50
2023-01-20T11:07:23.701Z,39.00
2023-01-20T11:09:51.794Z,35.00
2023-01-20T11:12:28.128Z,29.00
2023-01-20T11:15:00.387Z,29.00
2023-01-20T11:17:28.408Z,30.00
2023-01-20T11:19:58.606Z,23.50
2023-01-20T11:22:31.456Z,29.00
2023-01-20T11:25:00.851Z,29.00
2023-01-20T11:27:37.293Z,21.00
2023-01-20T11:30:20.697Z,26.00
2023-01-20T11:33:08.129Z,21.00
2023-01-20T11:35:36.243Z,30.00
2023-01-20T11:38:24.702Z,25.00
2023-01-20T11:40:55.270Z,21.00
2023-01-20T11:43:34.684Z,20.00
2023-01-20T11:46:30.158Z,26.00
2023-01-20T11:49:22.815Z,27.00
2023-01-20T11:51:54.084Z,28.50
2023-01-20T11:54:23.407Z,25.00
2023-01-20T11:57:04.781Z,28.00
2023-01-20T11:59:35.616Z,27.50
2023-01-20T12:02:06.921Z,19.50
2023-01-20T12:04:53.631Z,32.00
2023-01-20T12:07:41.877Z,28.00
2023-01-20T12:10:30.700Z,23.00
2023-01-20T12:13:13.136Z,25.00
2023-01-20T12:15:46.966Z,29.00
2023-01-20T12:18:35.998Z,28.00
2023-01-20T12:21:17.938Z,27.00
2023-01-20T12:24:14.027Z,22.50
2023-01-20T12:26:42.882Z,29.00
2023-01-20T12:29:33.834Z,26.00
2023-01-20T12:32:04.464Z,33.50
2023-01-20T12:34:34.514Z,25.00
2023-01-20T12:37:18.894Z,23.00
2023-01-20T12:40:15.276Z,21.00
2023-01-20T12:43:19.837Z,21.50
2023-01-20T12:46:03.658Z,18.50
2023-01-20T12:48:52.119Z,23.50
2023-01-20T12:51:35.850Z,22.00
2023-01-20T12:54:16.228Z,26.00
2023-01-20T12:57:01.301Z,26.00
2023-01-20T13:00:06.504Z,29.00
2023-01-20T13:03:05.517Z,36.50
2023-01-20T13:06:01.209Z,38.00
2023-01-20T13:08:36.757Z,32.00
2023-01-20T13:11:35.922Z,27.00
2023-01-20T13:14:12.668Z,35.33
2023-01-20T13:16:44.427Z,39.00
2023-01-20T13:19:31.033Z,30.50
2023-01-20T13:22:26.821Z,29.00
2023-01-20T13:24:57.471Z,39.50
2023-01-20T13:27:33.498Z,43.50
2023-01-20T13:30:54.756Z,40.00
2023-01-20T13:33:39.976Z,41.00
2023-01-20T13:36:22.898Z,40.00
2023-01-20T13:39:28.999Z,33.00
2023-01-20T13:41:57.515Z,32.00
2023-01-20T13:44:36.250Z,39.00
2023-01-20T13:49:44.425Z,28.00
2023-01-20T13:52:12.661Z,37.50
2023-01-20T13:54:45.905Z,31.00
2023-01-20T13:57:28.116Z,33.00
2023-01-20T13:59:56.637Z,38.00
2023-01-20T14:02:28.989Z,40.50
2023-01-20T14:04:58.796Z,37.00
2023-01-20T14:07:30.123Z,36.00
2023-01-20T14:10:00.197Z,40.00
2023-01-20T14:12:28.465Z,38.00
2023-01-20T14:14:56.518Z,37.00
2023-01-20T14:17:25.045Z,40.00
2023-01-20T14:19:56.048Z,45.00
2023-01-20T14:22:32.658Z,37.00
2023-01-20T14:25:01.905Z,42.00
2023-01-20T14:27:37.409Z,40.00
2023-01-20T14:30:15.170Z,37.67
2023-01-20T14:32:49.837Z,38.00
2023-01-20T14:35:31.580Z,41.00
2023-01-20T14:38:00.527Z,31.00
2023-01-20T14:40:35.434Z,29.00
2023-01-20T14:43:21.870Z,35.00
2023-01-20T14:45:52.233Z,47.00
2023-01-20T14:48:34.032Z,41.00
2023-01-20T14:51:04.445Z,44.00
2023-01-20T14:53:32.720Z,47.00
2023-01-20T14:56:02.641Z,45.00
2023-01-20T15:01:06.827Z,44.00
2023-01-20T15:03:35.820Z,36.00
2023-01-20T15:06:13.029Z,38.00
2023-01-20T15:08:41.033Z,31.00
2023-01-20T15:11:31.368Z,34.50
2023-01-20T15:14:02.204Z,35.50
2023-01-20T15:16:46.631Z,31.00
2023-01-20T15:19:23.424Z,36.00
2023-01-20T15:21:57.029Z,33.00
2023-01-20T15:24:41.170Z,27.00
2023-01-20T15:27:30.618Z,32.00
2023-01-20T15:30:13.036Z,29.50
2023-01-20T15:32:42.307Z,28.00
2023-01-20T15:35:15.209Z,36.00
2023-01-20T15:37:44.587Z,41.33
2023-01-20T15:40:24.012Z,51.50
2023-01-20T15:42:53.644Z,48.00
2023-01-20T15:45:21.827Z,42.00
2023-01-20T15:47:50.033Z,40.00
2023-01-20T15:50:22.974Z,40.00
2023-01-20T15:53:18.747Z,38.00
2023-01-20T15:58:30.820Z,29.50
2023-01-20T16:01:00.231Z,32.50
2023-01-20T16:03:28.846Z,29.00
2023-01-20T16:05:57.211Z,32.00
2023-01-20T16:08:37.755Z,38.00
2023-01-20T16:11:06.314Z,28.00
2023-01-20T16:13:34.799Z,24.00
2023-01-20T16:16:06.914Z,25.00
2023-01-20T16:18:35.715Z,30.00
2023-01-20T16:21:04.845Z,26.00
2023-01-20T16:23:32.748Z,24.00
2023-01-20T16:26:01.029Z,26.00
2023-01-20T16:28:28.982Z,24.50
2023-01-20T16:30:57.892Z,35.50
2023-01-20T16:33:27.287Z,29.67
2023-01-20T16:35:56.452Z,31.50
2023-01-20T16:38:25.951Z,23.00
2023-01-20T16:41:03.197Z,27.00
2023-01-20T16:43:31.306Z,28.00
2023-01-20T16:45:59.342Z,29.00
2023-01-20T16:48:27.556Z,32.00
2023-01-20T16:50:55.813Z,38.50
2023-01-20T16:53:23.744Z,32.00
2023-01-20T16:55:51.874Z,35.50
2023-01-20T16:58:19.792Z,42.00
2023-01-20T17:00:47.944Z,34.00
2023-01-20T17:03:15.870Z,36.33
2023-01-20T17:05:43.923Z,37.00
2023-01-20T17:08:12.147Z,39.50
2023-01-20T17:10:40.261Z,38.00
2023-01-20T17:16:01.669Z,40.00
2023-01-20T17:18:29.780Z,42.67
2023-01-20T17:20:57.768Z,43.50
2023-01-20T17:23:25.744Z,36.00
2023-01-20T17:25:53.725Z,30.33
2023-01-20T17:28:21.705Z,25.50
2023-01-20T17:30:49.814Z,30.00
2023-01-20T17:33:17.946Z,29.00
2023-01-20T17:35:55.822Z,25.00
2023-01-20T17:38:24.689Z,28.00
2023-01-20T17:40:52.650Z,38.00
2023-01-20T17:43:20.658Z,42.00
2023-01-20T17:45:53.056Z,38.00
2023-01-20T17:48:21.455Z,46.00
2023-01-20T17:50:49.453Z,46.00
2023-01-20T17:53:18.574Z,44.00
2023-01-20T17:55:46.547Z,45.50
2023-01-20T17:58:14.792Z,44.00
2023-01-20T18:00:42.790Z,34.00
2023-01-20T18:03:10.804Z,36.00
2023-01-20T18:05:38.761Z,40.00
2023-01-20T18:08:06.826Z,27.50
2023-01-20T18:10:34.923Z,34.00
2023-01-20T18:13:02.907Z,36.00
2023-01-20T18:15:30.867Z,26.50
2023-01-20T18:18:02.420Z,29.00
2023-01-20T18:20:30.540Z,39.00
2023-01-20T18:22:58.514Z,31.00
2023-01-20T18:28:35.160Z,31.00
2023-01-20T18:31:25.423Z,39.00
2023-01-20T18:33:56.898Z,31.00
2023-01-20T18:36:27.789Z,33.00
2023-01-20T18:39:01.731Z,30.00
2023-01-20T18:41:32.329Z,31.00
2023-01-20T18:44:00.507Z,33.33
2023-01-20T18:46:28.803Z,32.00
2023-01-20T18:49:03.611Z,33.00
2023-01-20T18:51:33.446Z,25.50
2023-01-20T18:54:08.587Z,31.50
2023-01-20T18:56:37.094Z,30.00
2023-01-20T18:59:06.791Z,30.50
2023-01-20T19:01:39.565Z,28.00
2023-01-20T19:04:10.743Z,27.33
2023-01-20T19:06:41.574Z,32.50
2023-01-20T19:09:10.658Z,28.00
2023-01-20T19:11:42.078Z,23.50
2023-01-20T19:14:14.814Z,30.00
2023-01-20T19:16:49.226Z,28.00
2023-01-20T19:19:19.204Z,30.00
2023-01-20T19:21:51.858Z,24.33
2023-01-20T19:24:21.486Z,24.00
2023-01-20T19:26:51.712Z,24.00
2023-01-20T19:29:19.906Z,24.00
2023-01-20T19:31:49.298Z,29.00
2023-01-20T19:34:17.469Z,33.00
2023-01-20T19:36:45.570Z,33.00
2023-01-20T19:39:13.736Z,35.50
2023-01-20T19:41:41.882Z,34.00
2023-01-20T19:44:11.274Z,37.00
2023-01-20T19:46:39.349Z,31.50
2023-01-20T19:49:07.673Z,29.50
2023-01-20T19:51:36.562Z,28.00
2023-01-20T19:54:05.884Z,33.00
2023-01-20T19:59:06.319Z,30.00
2023-01-20T20:01:36.729Z,42.00
2023-01-20T20:04:10.384Z,35.50
2023-01-20T20:06:47.618Z,39.00
2023-01-20T20:09:19.463Z,35.00
2023-01-20T20:11:48.215Z,36.50
2023-01-20T20:14:19.379Z,30.00
2023-01-20T20:16:48.172Z,35.00
2023-01-20T20:19:19.231Z,28.00
2023-01-20T20:21:47.476Z,43.33
2023-01-20T20:24:17.390Z,35.00
2023-01-20T20:26:46.384Z,33.00
2023-01-20T20:29:18.552Z,34.00
2023-01-20T20:31:47.443Z,34.00
2023-01-20T20:34:18.539Z,38.00
2023-01-20T20:36:47.264Z,30.00
2023-01-20T20:39:18.326Z,35.00
2023-01-20T20:41:46.988Z,31.00
2023-01-20T20:44:16.557Z,26.50
2023-01-20T20:46:44.805Z,25.00
2023-01-20T20:49:15.836Z,34.00
2023-01-20T20:51:44.297Z,32.00
2023-01-20T20:54:17.173Z,24.50
2023-01-20T20:56:45.735Z,23.00
2023-01-20T20:59:13.851Z,23.00
2023-01-20T21:01:42.053Z,23.00
2023-01-20T21:04:11.851Z,28.00
2023-01-20T21:06:39.935Z,27.67
2023-01-20T21:09:08.172Z,27.00
2023-01-20T21:14:07.477Z,27.00
2023-01-20T21:16:36.360Z,29.00
2023-01-20T21:19:05.374Z,37.50
2023-01-20T21:21:33.969Z,42.00
2023-01-20T21:24:02.096Z,31.00
2023-01-20T21:26:31.035Z,36.00
2023-01-20T21:29:02.317Z,39.67
2023-01-20T21:31:31.791Z,36.00
2023-01-20T21:34:00.831Z,29.00
2023-01-20T21:36:31.312Z,29.00
2023-01-20T21:38:59.800Z,31.00
2023-01-20T21:41:28.112Z,31.00
2023-01-20T21:44:14.704Z,27.00
2023-01-20T21:46:42.842Z,28.00
2023-01-20T21:49:30.664Z,27.00
2023-01-20T21:52:17.482Z,27.00
2023-01-20T21:54:45.841Z,21.50
2023-01-20T21:57:14.957Z,25.00
2023-01-20T21:59:43.461Z,28.00
2023-01-20T22:02:13.625Z,25.50
2023-01-20T22:04:42.794Z,25.00
2023-01-20T22:07:11.413Z,23.00
2023-01-20T22:09:40.696Z,22.00
2023-01-20T22:12:09.349Z,19.00
2023-01-20T22:14:38.653Z,24.00
2023-01-20T22:17:08.494Z,19.50
2023-01-20T22:19:38.341Z,22.00
2023-01-20T22:22:07.302Z,17.67
2023-01-20T22:24:36.252Z,19.00
2023-01-20T22:27:04.439Z,22.00
2023-01-20T22:29:32.742Z,22.00
2023-01-20T22:32:03.399Z,19.00
2023-01-20T22:34:31.662Z,21.00
2023-01-20T22:37:00.733Z,22.00
2023-01-20T22:39:29.429Z,22.00
2023-01-20T22:41:57.666Z,21.00
2023-01-20T22:44:25.857Z,17.00
2023-01-20T22:46:54.060Z,25.50
2023-01-20T22:49:22.307Z,19.00
2023-01-20T22:51:50.667Z,18.00
2023-01-20T22:54:18.910Z,18.50
2023-01-20T22:56:48.190Z,21.00
2023-01-20T22:59:16.322Z,25.50
2023-01-20T23:01:44.465Z,18.00
2023-01-20T23:04:12.671Z,26.00
2023-01-20T23:06:40.801Z,18.50
2023-01-20T23:09:12.697Z,7.00
2023-01-20T23:11:40.919Z,22.00
2023-01-20T23:14:12.951Z,15.00
2023-01-20T23:16:42.485Z,15.00
2023-01-20T23:19:11.199Z,13.00
2023-01-20T23:21:39.202Z,10.00
2023-01-20T23:24:09.171Z,9.50
2023-01-20T23:26:37.258Z,12.00
2023-01-20T23:29:05.468Z,8.00
2023-01-20T23:31:35.557Z,10.00
2023-01-20T23:35:04.574Z,11.00
2023-01-20T23:38:09.312Z,9.00
2023-01-20T23:40:37.345Z,8.50
2023-01-20T23:43:05.380Z,9.00
2023-01-20T23:45:33.371Z,9.00
2023-01-20T23:48:01.567Z,13.67
2023-01-20T23:50:29.779Z,11.00
2023-01-20T23:53:58.562Z,14.00
2023-01-20T23:56:27.024Z,14.00
2023-01-20T23:58:54.997Z,15.50
